createdAt,value
2023-05-15T00:01:48.543Z,99281.66
2023-05-15T00:04:17.312Z,99284.94
2023-05-15T00:06:45.781Z,99286.69
2023-05-15T00:09:14.163Z,99289.97
2023-05-15T00:11:42.516Z,99305.03
2023-05-15T00:14:11.169Z,99295.56
2023-05-15T00:16:39.651Z,99291.69
2023-05-15T00:19:08.574Z,99297.78
2023-05-15T00:21:37.155Z,99309.50
2023-05-15T00:24:05.895Z,99312.81
2023-05-15T00:26:34.364Z,99321.69
2023-05-15T00:29:02.736Z,99325.75
2023-05-15T00:31:31.120Z,99323.41
2023-05-15T00:33:59.493Z,99331.56
2023-05-15T00:36:27.869Z,99328.44
2023-05-15T00:38:56.431Z,99336.59
2023-05-15T00:41:25.673Z,99341.91
2023-05-15T00:43:56.706Z,99345.19
2023-05-15T00:46:27.356Z,99342.06
2023-05-15T00:48:58.572Z,99343.31
2023-05-15T00:51:28.074Z,99345.84
2023-05-15T00:53:57.577Z,99339.91
2023-05-15T00:56:28.350Z,99343.94
2023-05-15T00:58:57.814Z,99343.88
2023-05-15T01:01:26.609Z,99345.13
2023-05-15T01:03:55.099Z,99347.88
2023-05-15T01:06:23.463Z,99353.97
2023-05-15T01:08:52.993Z,99359.53
2023-05-15T01:11:22.647Z,99366.38
2023-05-15T01:13:50.981Z,99380.38
2023-05-15T01:16:19.380Z,99378.22
2023-05-15T01:18:47.878Z,99381.53
2023-05-15T01:21:49.264Z,99385.03
2023-05-15T01:24:56.758Z,99390.50
2023-05-15T01:27:46.464Z,99383.72
2023-05-15T01:30:26.016Z,99383.69
2023-05-15T01:33:04.924Z,99382.28
2023-05-15T01:35:35.985Z,99389.34
2023-05-15T01:38:14.727Z,99397.72
2023-05-15T01:40:46.658Z,99393.84
2023-05-15T01:43:23.230Z,99402.97
2023-05-15T01:45:51.752Z,99407.75
2023-05-15T01:48:22.318Z,99412.00
2023-05-15T01:50:52.910Z,99405.28
2023-05-15T01:53:21.939Z,99406.75
2023-05-15T01:55:51.698Z,99411.53
2023-05-15T01:58:21.356Z,99410.69
2023-05-15T02:00:50.759Z,99412.44
2023-05-15T02:03:20.974Z,99412.34
2023-05-15T02:05:50.557Z,99416.38
2023-05-15T02:08:19.252Z,99417.59
2023-05-15T02:10:48.708Z,99411.63
2023-05-15T02:13:18.002Z,99412.81
2023-05-15T02:15:46.511Z,99401.66
2023-05-15T02:18:15.132Z,99416.41
2023-05-15T02:20:43.563Z,99418.38
2023-05-15T02:23:12.265Z,99416.00
2023-05-15T02:26:08.749Z,99404.59
2023-05-15T02:28:49.904Z,99407.34
2023-05-15T02:31:48.587Z,99410.25
2023-05-15T02:34:52.052Z,99410.72
2023-05-15T02:37:26.212Z,99413.09
2023-05-15T02:39:56.399Z,99409.59
2023-05-15T02:42:26.049Z,99406.13
2023-05-15T02:44:56.370Z,99410.38
2023-05-15T02:47:26.294Z,99399.47
2023-05-15T02:49:54.968Z,99402.41
2023-05-15T02:52:25.920Z,99403.81
2023-05-15T02:54:54.277Z,99405.53
2023-05-15T02:57:22.631Z,99401.66
2023-05-15T02:59:51.175Z,99401.84
2023-05-15T03:02:19.542Z,99405.44
2023-05-15T03:04:48.117Z,99396.84
2023-05-15T03:07:16.511Z,99398.97
2023-05-15T03:09:44.981Z,99400.16
2023-05-15T03:12:13.466Z,99396.44
2023-05-15T03:14:41.872Z,99399.25
2023-05-15T03:17:10.399Z,99390.78
2023-05-15T03:19:38.846Z,99382.28
2023-05-15T03:22:07.327Z,99384.25
2023-05-15T03:24:35.852Z,99376.41
2023-05-15T03:27:04.310Z,99369.22
2023-05-15T03:29:32.759Z,99373.44
2023-05-15T03:32:01.229Z,99366.34
2023-05-15T03:34:29.700Z,99364.91
2023-05-15T03:36:58.119Z,99364.97
2023-05-15T03:39:26.596Z,99359.38
2023-05-15T03:41:55.031Z,99359.63
2023-05-15T03:44:23.418Z,99359.16
2023-05-15T03:46:51.789Z,99362.22
2023-05-15T03:49:20.198Z,99355.88
2023-05-15T03:51:49.100Z,99355.38
2023-05-15T03:54:17.858Z,99351.28
2023-05-15T03:56:46.376Z,99346.97
2023-05-15T03:59:14.773Z,99341.00
2023-05-15T04:01:59.413Z,99341.59
2023-05-15T04:04:31.692Z,99339.91
2023-05-15T04:07:00.246Z,99330.13
2023-05-15T04:09:28.601Z,99328.28
2023-05-15T04:11:57.000Z,99325.66
2023-05-15T04:14:25.433Z,99320.56
2023-05-15T04:16:53.862Z,99322.47
2023-05-15T04:19:22.437Z,99315.47
2023-05-15T04:21:50.821Z,99314.19
2023-05-15T04:24:19.205Z,99308.53
2023-05-15T04:26:47.709Z,99314.22
2023-05-15T04:29:16.182Z,99312.69
2023-05-15T04:31:44.593Z,99305.75
2023-05-15T04:34:13.057Z,99306.16
2023-05-15T04:36:43.000Z,99310.50
2023-05-15T04:39:11.577Z,99300.47
2023-05-15T04:41:39.926Z,99292.34
2023-05-15T04:44:08.400Z,99284.78
2023-05-15T04:46:39.008Z,99284.97
2023-05-15T04:49:07.774Z,99282.13
2023-05-15T04:51:36.103Z,99274.75
2023-05-15T04:54:04.550Z,99267.97
2023-05-15T04:56:33.412Z,99261.91
2023-05-15T04:59:02.179Z,99260.19
2023-05-15T05:01:30.757Z,99260.19
2023-05-15T05:03:59.142Z,99261.72
2023-05-15T05:06:28.635Z,99256.22
2023-05-15T05:08:59.327Z,99258.84
2023-05-15T05:11:27.709Z,99246.00
2023-05-15T05:13:56.150Z,99253.38
2023-05-15T05:16:24.552Z,99246.78
2023-05-15T05:18:53.076Z,99239.59
2023-05-15T05:21:21.600Z,99249.78
2023-05-15T05:23:49.957Z,99239.56
2023-05-15T05:26:18.336Z,99230.31
2023-05-15T05:28:46.691Z,99226.16
2023-05-15T05:31:15.212Z,99226.16
2023-05-15T05:33:43.627Z,99225.22
2023-05-15T05:36:12.227Z,99219.00
2023-05-15T05:38:40.552Z,99217.06
2023-05-15T05:41:08.913Z,99218.03
2023-05-15T05:43:37.288Z,99210.09
2023-05-15T05:46:05.697Z,99213.47
2023-05-15T05:48:34.061Z,99205.53
2023-05-15T05:51:04.320Z,99208.38
2023-05-15T05:56:01.065Z,99189.06
2023-05-15T05:58:29.464Z,99183.00
2023-05-15T06:00:57.920Z,99187.31
2023-05-15T06:03:26.815Z,99176.69
2023-05-15T06:05:55.278Z,99171.38
2023-05-15T06:08:23.602Z,99162.28
2023-05-15T06:10:52.033Z,99158.47
2023-05-15T06:13:20.395Z,99156.50
2023-05-15T06:15:49.209Z,99153.44
2023-05-15T06:18:17.645Z,99152.13
2023-05-15T06:20:46.055Z,99147.06
2023-05-15T06:23:14.454Z,99141.38
2023-05-15T06:25:42.947Z,99138.88
2023-05-15T06:28:11.362Z,99145.84
2023-05-15T06:30:39.733Z,99129.28
2023-05-15T06:33:08.171Z,99123.66
2023-05-15T06:35:36.674Z,99128.31
2023-05-15T06:38:05.120Z,99119.50
2023-05-15T06:40:33.460Z,99115.16
2023-05-15T06:43:01.770Z,99106.63
2023-05-15T06:45:30.099Z,99098.84
2023-05-15T06:48:00.039Z,99096.13
2023-05-15T06:50:30.073Z,99092.63
2023-05-15T06:52:58.429Z,99083.41
2023-05-15T06:55:27.555Z,99083.28
2023-05-15T06:57:56.003Z,99083.06
2023-05-15T07:00:24.396Z,99060.38
2023-05-15T07:02:52.807Z,99063.91
2023-05-15T07:05:22.747Z,99061.19
2023-05-15T07:07:52.238Z,99047.28
2023-05-15T07:10:20.637Z,99044.94
2023-05-15T07:12:48.951Z,99044.66
2023-05-15T07:15:18.579Z,99037.41
2023-05-15T07:17:47.065Z,99041.75
2023-05-15T07:20:15.675Z,99040.75
2023-05-15T07:22:55.146Z,99039.22
2023-05-15T07:25:25.402Z,99026.44
2023-05-15T07:27:54.596Z,99030.38
2023-05-15T07:30:23.754Z,99022.91
2023-05-15T07:32:52.316Z,99019.06
2023-05-15T07:35:20.750Z,99021.66
2023-05-15T07:37:49.464Z,99016.47
2023-05-15T07:40:17.955Z,99010.56
2023-05-15T07:42:46.661Z,99011.06
2023-05-15T07:45:15.120Z,99009.72
2023-05-15T07:47:47.612Z,99005.69
2023-05-15T07:50:17.403Z,99000.50
2023-05-15T07:52:46.079Z,98988.53
2023-05-15T07:55:14.734Z,98987.75
2023-05-15T07:57:43.287Z,98994.91
2023-05-15T08:00:13.752Z,98985.13
2023-05-15T08:02:42.638Z,98981.19
2023-05-15T08:05:11.709Z,98976.91
2023-05-15T08:07:40.310Z,98977.09
2023-05-15T08:10:09.400Z,98980.03
2023-05-15T08:12:38.095Z,98979.50
2023-05-15T08:15:07.447Z,98981.31
2023-05-15T08:17:35.846Z,98971.38
2023-05-15T08:20:05.845Z,98972.03
2023-05-15T08:22:34.403Z,98977.69
2023-05-15T08:25:04.768Z,98975.88
2023-05-15T08:27:33.258Z,98979.59
2023-05-15T08:30:01.710Z,98988.19
2023-05-15T08:32:30.238Z,98967.28
2023-05-15T08:35:00.438Z,98953.91
2023-05-15T08:37:28.972Z,98954.94
2023-05-15T08:39:57.347Z,98941.19
2023-05-15T08:42:44.356Z,98935.03
2023-05-15T08:45:14.903Z,98936.38
2023-05-15T08:47:45.140Z,98947.38
2023-05-15T08:50:18.431Z,98942.81
2023-05-15T08:52:48.822Z,98932.63
2023-05-15T08:55:18.172Z,98931.69
2023-05-15T08:57:49.000Z,98938.50
2023-05-15T09:00:18.885Z,98938.69
2023-05-15T09:02:47.490Z,98929.78
2023-05-15T09:05:16.107Z,98928.06
2023-05-15T09:07:45.940Z,98918.63
2023-05-15T09:10:16.108Z,98916.75
2023-05-15T09:12:45.856Z,98916.16
2023-05-15T09:15:19.424Z,98909.91
2023-05-15T09:17:48.150Z,98920.28
2023-05-15T09:20:27.905Z,98913.63
2023-05-15T09:22:57.409Z,98923.47
2023-05-15T09:25:40.947Z,98920.63
2023-05-15T09:28:12.022Z,98921.22
2023-05-15T09:30:43.009Z,98923.28
2023-05-15T09:33:11.979Z,98919.13
2023-05-15T09:35:41.970Z,98916.88
2023-05-15T09:38:12.887Z,98917.63
2023-05-15T09:40:41.914Z,98917.63
2023-05-15T09:43:13.435Z,98919.88
2023-05-15T09:45:42.097Z,98912.69
2023-05-15T09:48:12.676Z,98911.94
2023-05-15T09:50:43.731Z,98911.03
2023-05-15T09:53:21.315Z,98915.00
2023-05-15T09:55:50.898Z,98909.16
2023-05-15T09:58:20.181Z,98919.38
2023-05-15T10:00:49.563Z,98924.47
2023-05-15T10:03:21.670Z,98915.63
2023-05-15T10:05:50.225Z,98911.09
2023-05-15T10:08:29.218Z,98915.66
2023-05-15T10:11:02.136Z,98923.06
2023-05-15T10:13:35.647Z,98921.91
2023-05-15T10:16:04.976Z,98918.53
2023-05-15T10:18:37.304Z,98917.44
2023-05-15T10:21:06.409Z,98916.31
2023-05-15T10:23:37.136Z,98920.28
2023-05-15T10:26:15.444Z,98922.19
2023-05-15T10:28:47.427Z,98927.50
2023-05-15T10:31:15.943Z,98930.13
2023-05-15T10:33:45.821Z,98927.69
2023-05-15T10:36:16.672Z,98929.00
2023-05-15T10:38:47.438Z,98936.53
2023-05-15T10:41:22.278Z,98928.59
2023-05-15T10:43:51.230Z,98927.09
2023-05-15T10:46:20.454Z,98922.75
2023-05-15T10:48:49.083Z,98934.66
2023-05-15T10:51:28.878Z,98928.06
2023-05-15T10:53:58.567Z,98933.94
2023-05-15T10:56:45.336Z,98933.91
2023-05-15T10:59:13.984Z,98948.09
2023-05-15T11:01:43.067Z,98946.78
2023-05-15T11:04:20.186Z,98952.44
2023-05-15T11:06:50.990Z,98954.69
2023-05-15T11:09:28.641Z,98954.66
2023-05-15T11:12:01.218Z,98959.56
2023-05-15T11:14:31.077Z,98973.91
2023-05-15T11:17:01.642Z,98972.75
2023-05-15T11:19:34.564Z,98978.78
2023-05-15T11:22:17.250Z,98982.75
2023-05-15T11:24:56.621Z,98983.13
2023-05-15T11:27:27.811Z,98975.56
2023-05-15T11:30:09.828Z,98984.22
2023-05-15T11:33:00.488Z,98981.78
2023-05-15T11:35:31.979Z,98984.19
2023-05-15T11:38:04.663Z,98977.41
2023-05-15T11:40:44.571Z,98983.38
2023-05-15T11:43:27.348Z,98979.97
2023-05-15T11:45:58.726Z,98989.97
2023-05-15T11:48:33.379Z,98999.34
2023-05-15T11:51:06.514Z,99004.41
2023-05-15T11:53:35.275Z,99013.06
2023-05-15T11:56:03.764Z,99015.28
2023-05-15T11:58:32.824Z,99015.44
2023-05-15T12:01:01.227Z,99016.34
2023-05-15T12:03:35.707Z,99024.44
2023-05-15T12:06:05.237Z,99018.38
2023-05-15T12:08:38.588Z,99029.25
2023-05-15T12:11:07.252Z,99030.91
2023-05-15T12:13:36.500Z,99042.78
2023-05-15T12:16:05.989Z,99042.38
2023-05-15T12:18:35.004Z,99047.59
2023-05-15T12:21:05.726Z,99047.94
2023-05-15T12:23:34.205Z,99058.09
2023-05-15T12:26:04.632Z,99055.63
2023-05-15T12:28:37.086Z,99055.22
2023-05-15T12:31:05.808Z,99053.50
2023-05-15T12:33:34.311Z,99064.38
2023-05-15T12:36:02.769Z,99063.41
2023-05-15T12:38:31.485Z,99077.09
2023-05-15T12:40:59.966Z,99070.50
2023-05-15T12:43:28.824Z,99081.59
2023-05-15T12:45:58.395Z,99082.69
2023-05-15T12:48:34.151Z,99083.78
2023-05-15T12:51:09.411Z,99093.34
2023-05-15T12:53:40.421Z,99104.41
2023-05-15T12:56:17.031Z,99109.84
2023-05-15T12:58:45.686Z,99107.38
2023-05-15T13:01:14.134Z,99101.53
2023-05-15T13:03:45.300Z,99106.94
2023-05-15T13:06:13.831Z,99108.25
2023-05-15T13:08:44.251Z,99109.91
2023-05-15T13:11:15.144Z,99113.81
2023-05-15T13:13:48.198Z,99115.88
2023-05-15T13:16:21.655Z,99114.91
2023-05-15T13:18:50.152Z,99118.28
2023-05-15T13:21:19.122Z,99123.72
2023-05-15T13:23:47.545Z,99126.13
2023-05-15T13:26:15.941Z,99123.63
2023-05-15T13:28:44.273Z,99128.31
2023-05-15T13:31:13.117Z,99126.56
2023-05-15T13:33:41.516Z,99131.22
2023-05-15T13:36:10.025Z,99132.13
2023-05-15T13:38:38.583Z,99129.09
2023-05-15T13:41:07.080Z,99125.28
2023-05-15T13:43:35.519Z,99123.03
2023-05-15T13:46:03.875Z,99136.38
2023-05-15T13:48:33.056Z,99139.72
2023-05-15T13:51:02.492Z,99138.22
2023-05-15T13:53:30.808Z,99148.28
2023-05-15T13:55:59.208Z,99153.72
2023-05-15T13:58:27.804Z,99152.75
2023-05-15T14:00:56.200Z,99160.19
2023-05-15T14:03:24.656Z,99161.06
2023-05-15T14:05:53.672Z,99170.06
2023-05-15T14:08:23.224Z,99169.88
2023-05-15T14:10:51.550Z,99179.41
2023-05-15T14:13:20.199Z,99179.19
2023-05-15T14:15:48.642Z,99185.91
2023-05-15T14:18:16.982Z,99193.94
2023-05-15T14:20:45.725Z,99201.94
2023-05-15T14:23:14.093Z,99199.44
2023-05-15T14:25:42.820Z,99199.00
2023-05-15T14:28:11.205Z,99198.78
2023-05-15T14:30:39.566Z,99206.06
2023-05-15T14:33:08.208Z,99205.84
2023-05-15T14:35:37.212Z,99204.84
2023-05-15T14:38:06.019Z,99211.03
2023-05-15T14:40:34.934Z,99217.75
2023-05-15T14:43:03.237Z,99224.44
2023-05-15T14:45:31.819Z,99230.06
2023-05-15T14:48:00.607Z,99235.44
2023-05-15T14:50:29.331Z,99235.22
2023-05-15T14:52:57.672Z,99244.22
2023-05-15T14:55:26.016Z,99256.03
2023-05-15T14:57:54.338Z,99265.78
2023-05-15T15:00:22.886Z,99263.50
2023-05-15T15:02:51.319Z,99266.84
2023-05-15T15:05:19.788Z,99262.53
2023-05-15T15:08:08.475Z,99264.56
2023-05-15T15:10:39.423Z,99268.69
2023-05-15T15:13:10.939Z,99268.47
2023-05-15T15:15:39.662Z,99272.38
2023-05-15T15:18:08.759Z,99278.53
2023-05-15T15:20:37.193Z,99279.06
2023-05-15T15:23:06.001Z,99283.72
2023-05-15T15:25:35.361Z,99280.69
2023-05-15T15:28:04.187Z,99290.44
2023-05-15T15:30:32.644Z,99288.88
2023-05-15T15:33:02.041Z,99290.16
2023-05-15T15:35:30.544Z,99282.78
2023-05-15T15:37:59.033Z,99285.38
2023-05-15T15:40:27.750Z,99280.81
2023-05-15T15:42:56.427Z,99282.13
2023-05-15T15:45:24.854Z,99279.06
2023-05-15T15:47:53.336Z,99290.88
2023-05-15T15:50:22.302Z,99288.38
2023-05-15T15:52:50.928Z,99291.72
2023-05-15T15:55:19.431Z,99294.31
2023-05-15T15:57:47.842Z,99299.72
2023-05-15T16:00:16.833Z,99299.50
2023-05-15T16:02:45.495Z,99293.84
2023-05-15T16:05:13.940Z,99300.03
2023-05-15T16:07:42.746Z,99300.03
2023-05-15T16:10:13.674Z,99301.28
2023-05-15T16:12:43.271Z,99295.66
2023-05-15T16:17:43.208Z,99287.47
2023-05-15T16:20:12.439Z,99292.34
2023-05-15T16:22:42.524Z,99296.69
2023-05-15T16:25:11.270Z,99293.09
2023-05-15T16:27:39.833Z,99299.25
2023-05-15T16:30:10.120Z,99290.81
2023-05-15T16:32:38.584Z,99294.91
2023-05-15T16:35:07.776Z,99290.03
2023-05-15T16:37:36.240Z,99273.94
2023-05-15T16:40:05.120Z,99265.47
2023-05-15T16:42:38.057Z,99262.66
2023-05-15T16:45:07.541Z,99259.59
2023-05-15T16:47:38.281Z,99266.53
2023-05-15T16:50:08.509Z,99268.56
2023-05-15T16:52:39.445Z,99264.25
2023-05-15T16:55:08.159Z,99261.44
2023-05-15T16:57:36.561Z,99258.63
2023-05-15T17:00:08.505Z,99251.44
2023-05-15T17:02:37.690Z,99248.41
2023-05-15T17:05:06.898Z,99243.53
2023-05-15T17:07:35.236Z,99239.94
2023-05-15T17:10:03.679Z,99242.75
2023-05-15T17:12:32.291Z,99239.94
2023-05-15T17:15:01.004Z,99236.38
2023-05-15T17:17:29.694Z,99230.53
2023-05-15T17:19:59.845Z,99232.34
2023-05-15T17:22:29.990Z,99228.56
2023-05-15T17:24:58.542Z,99227.03
2023-05-15T17:27:26.917Z,99224.00
2023-05-15T17:29:55.537Z,99228.09
2023-05-15T17:32:24.205Z,99223.00
2023-05-15T17:34:52.796Z,99224.31
2023-05-15T17:37:21.357Z,99217.16
2023-05-15T17:39:49.743Z,99219.22
2023-05-15T17:42:18.263Z,99219.22
2023-05-15T17:44:46.660Z,99216.38
2023-05-15T17:47:15.022Z,99212.81
2023-05-15T17:49:43.332Z,99201.56
2023-05-15T17:52:12.058Z,99206.97
2023-05-15T17:54:40.495Z,99202.84
2023-05-15T17:57:08.847Z,99204.91
2023-05-15T17:59:37.173Z,99194.94
2023-05-15T18:02:05.690Z,99191.81
2023-05-15T18:04:34.064Z,99186.19
2023-05-15T18:07:02.399Z,99177.75
2023-05-15T18:09:30.816Z,99174.41
2023-05-15T18:11:59.129Z,99175.94
2023-05-15T18:14:27.561Z,99168.78
2023-05-15T18:16:57.284Z,99168.03
2023-05-15T18:19:25.734Z,99164.44
2023-05-15T18:21:54.212Z,99150.38
2023-05-15T18:24:22.653Z,99150.91
2023-05-15T18:26:51.007Z,99138.69
2023-05-15T18:29:19.489Z,99137.16
2023-05-15T18:31:47.942Z,99138.41
2023-05-15T18:34:16.438Z,99127.72
2023-05-15T18:36:45.115Z,99126.94
2023-05-15T18:39:13.632Z,99114.72
2023-05-15T18:41:41.995Z,99111.66
2023-05-15T18:44:10.452Z,99102.25
2023-05-15T18:46:38.881Z,99121.94
2023-05-15T18:49:07.304Z,99123.25
2023-05-15T18:51:36.709Z,99120.19
2023-05-15T18:54:05.119Z,99122.25
2023-05-15T18:56:33.525Z,99117.91
2023-05-15T18:59:01.922Z,99122.03
2023-05-15T19:01:30.359Z,99117.69
2023-05-15T19:03:58.768Z,99105.47
2023-05-15T19:06:27.220Z,99107.50
2023-05-15T19:08:55.672Z,99100.38
2023-05-15T19:11:24.480Z,99096.56
2023-05-15T19:13:52.888Z,99103.28
2023-05-15T19:16:21.447Z,99113.22
2023-05-15T19:18:49.908Z,99111.44
2023-05-15T19:21:21.885Z,99105.59
2023-05-15T19:23:52.113Z,99109.72
2023-05-15T19:26:22.534Z,99106.13
2023-05-15T19:28:51.057Z,99108.72
2023-05-15T19:31:30.723Z,99104.41
2023-05-15T19:34:00.659Z,99105.69
2023-05-15T19:36:29.113Z,99100.59
2023-05-15T19:38:57.486Z,99103.94
2023-05-15T19:41:26.068Z,99108.81
2023-05-15T19:43:54.430Z,99112.91
2023-05-15T19:46:23.055Z,99109.84
2023-05-15T19:48:51.615Z,99109.09
2023-05-15T19:51:19.992Z,99110.91
2023-05-15T19:53:48.312Z,99114.25
2023-05-15T19:56:16.853Z,99117.59
2023-05-15T19:58:45.296Z,99120.19
2023-05-15T20:01:13.706Z,99110.00
2023-05-15T20:03:42.234Z,99116.13
2023-05-15T20:06:11.631Z,99114.63
2023-05-15T20:08:40.307Z,99113.09
2023-05-15T20:11:10.513Z,99103.91
2023-05-15T20:13:39.319Z,99108.75
2023-05-15T20:16:11.441Z,99102.91
2023-05-15T20:18:42.959Z,99100.88
2023-05-15T20:21:12.161Z,99099.34
2023-05-15T20:23:40.661Z,99093.72
2023-05-15T20:26:09.018Z,99097.06
2023-05-15T20:28:37.397Z,99094.03
2023-05-15T20:31:05.872Z,99101.16
2023-05-15T20:33:34.307Z,99098.88
2023-05-15T20:36:03.255Z,99091.75
2023-05-15T20:38:31.647Z,99091.00
2023-05-15T20:41:00.171Z,99099.44
2023-05-15T20:43:28.690Z,99100.19
2023-05-15T20:45:57.236Z,99098.66
2023-05-15T20:48:25.710Z,99095.63
2023-05-15T20:50:55.037Z,99099.72
2023-05-15T20:53:23.447Z,99098.97
2023-05-15T20:55:51.864Z,99094.88
2023-05-15T20:58:20.224Z,99091.28
2023-05-15T21:00:48.651Z,99098.22
2023-05-15T21:03:17.183Z,99108.69
2023-05-15T21:05:45.811Z,99104.91
2023-05-15T21:08:14.205Z,99111.03
2023-05-15T21:10:42.606Z,99120.53
2023-05-15T21:13:10.983Z,99108.53
2023-05-15T21:15:39.376Z,99116.97
2023-05-15T21:18:07.790Z,99111.13
2023-05-15T21:20:36.358Z,99103.44
2023-05-15T21:23:04.726Z,99110.34
2023-05-15T21:25:34.538Z,99108.31
2023-05-15T21:28:02.972Z,99104.75
2023-05-15T21:30:31.828Z,99112.91
2023-05-15T21:33:00.691Z,99119.06
2023-05-15T21:35:29.844Z,99121.63
2023-05-15T21:37:58.366Z,99127.25
2023-05-15T21:40:26.962Z,99127.78
2023-05-15T21:42:55.481Z,99127.03
2023-05-15T21:45:24.133Z,99127.56
2023-05-15T21:47:52.522Z,99142.13
2023-05-15T21:50:21.183Z,99135.00
2023-05-15T21:52:51.868Z,99139.09
2023-05-15T21:55:20.521Z,99134.75
2023-05-15T21:57:48.833Z,99136.81
2023-05-15T22:00:17.990Z,99140.16
2023-05-15T22:02:46.492Z,99141.44
2023-05-15T22:05:15.178Z,99141.44
2023-05-15T22:07:43.559Z,99151.16
2023-05-15T22:10:17.223Z,99155.25
2023-05-15T22:12:45.928Z,99151.69
2023-05-15T22:15:15.880Z,99157.84
2023-05-15T22:17:44.313Z,99159.13
2023-05-15T22:20:14.183Z,99166.78
2023-05-15T22:22:44.073Z,99166.53
2023-05-15T22:25:12.494Z,99174.97
2023-05-15T22:27:42.049Z,99181.09
2023-05-15T22:30:10.755Z,99171.91
2023-05-15T22:32:39.369Z,99191.56
2023-05-15T22:35:09.417Z,99182.38
2023-05-15T22:37:37.921Z,99187.25
2023-05-15T22:40:08.415Z,99196.16
2023-05-15T22:42:36.806Z,99198.97
2023-05-15T22:45:06.835Z,99202.53
2023-05-15T22:47:35.405Z,99219.41
2023-05-15T22:50:03.883Z,99213.78
2023-05-15T22:52:32.282Z,99220.69
2023-05-15T22:55:00.639Z,99223.50
2023-05-15T22:57:29.216Z,99225.28
2023-05-15T22:59:57.809Z,99232.44
2023-05-15T23:02:26.314Z,99225.53
2023-05-15T23:04:54.750Z,99232.69
2023-05-15T23:07:23.584Z,99230.63
2023-05-15T23:09:52.515Z,99233.69
2023-05-15T23:12:21.033Z,99235.97
2023-05-15T23:14:49.379Z,99240.53
2023-05-15T23:17:17.690Z,99234.38
2023-05-15T23:19:46.115Z,99231.81
2023-05-15T23:22:14.431Z,99230.75
2023-05-15T23:24:42.754Z,99225.38
2023-05-15T23:27:11.175Z,99227.13
2023-05-15T23:29:39.508Z,99231.69
2023-05-15T23:32:08.361Z,99227.09
2023-05-15T23:34:36.682Z,99235.22
2023-05-15T23:37:05.100Z,99244.34
2023-05-15T23:39:33.455Z,99241.78
2023-05-15T23:42:01.878Z,99248.63
2023-05-15T23:44:30.396Z,99255.47
2023-05-15T23:46:58.786Z,99253.13
2023-05-15T23:49:27.353Z,99248.53
2023-05-15T23:51:55.681Z,99258.19
2023-05-15T23:54:24.008Z,99256.59
2023-05-15T23:56:52.596Z,99253.50
2023-05-15T23:59:21.389Z,99263.94
